createdAt,value
2018-07-13T00:00:19.779Z,98904.97
2018-07-13T00:02:49.010Z,98906.09
2018-07-13T00:05:18.250Z,98902.63
2018-07-13T00:07:47.460Z,98901.91
2018-07-13T00:10:16.758Z,98906.55
2018-07-13T00:12:45.904Z,98910.64
2018-07-13T00:15:15.212Z,98908.70
2018-07-13T00:17:44.544Z,98907.08
2018-07-13T00:20:13.772Z,98905.76
2018-07-13T00:22:42.966Z,98904.89
2018-07-13T00:25:12.232Z,98898.63
2018-07-13T00:27:41.542Z,98905.03
2018-07-13T00:30:10.725Z,98910.07
2018-07-13T00:32:40.065Z,98905.05
2018-07-13T00:35:09.326Z,98899.86
2018-07-13T00:37:38.545Z,98902.89
2018-07-13T00:40:07.624Z,98904.13
2018-07-13T00:42:36.896Z,98903.78
2018-07-13T00:45:06.197Z,98901.83
2018-07-13T00:47:35.528Z,98905.09
2018-07-13T00:50:04.828Z,98908.80
2018-07-13T00:52:34.177Z,98915.00
2018-07-13T00:55:03.488Z,98913.69
2018-07-13T00:57:32.820Z,98914.09
2018-07-13T01:00:02.152Z,98914.81
2018-07-13T01:02:31.457Z,98913.70
2018-07-13T01:05:00.704Z,98907.92
2018-07-13T01:07:30.157Z,98908.52
2018-07-13T01:09:59.351Z,98907.78
2018-07-13T01:12:28.641Z,98905.97
2018-07-13T01:14:57.977Z,98906.66
2018-07-13T01:17:27.228Z,98907.20
2018-07-13T01:19:56.476Z,98904.64
2018-07-13T01:22:25.772Z,98903.28
2018-07-13T01:24:55.119Z,98910.72
2018-07-13T01:27:28.092Z,98908.75
2018-07-13T01:29:58.272Z,98906.55
2018-07-13T01:32:27.498Z,98903.48
2018-07-13T01:34:56.780Z,98906.00
2018-07-13T01:37:26.057Z,98912.98
2018-07-13T01:39:55.255Z,98910.84
2018-07-13T01:42:24.497Z,98912.02
2018-07-13T01:44:53.642Z,98912.81
2018-07-13T01:47:22.905Z,98917.23
2018-07-13T01:49:52.208Z,98915.81
2018-07-13T01:52:21.445Z,98917.92
2018-07-13T01:54:50.782Z,98911.14
2018-07-13T01:57:19.972Z,98908.31
2018-07-13T01:59:49.268Z,98918.17
2018-07-13T02:02:18.459Z,98913.78
2018-07-13T02:04:47.704Z,98914.84
2018-07-13T02:07:16.945Z,98913.34
2018-07-13T02:09:46.232Z,98913.34
2018-07-13T02:12:15.552Z,98911.97
2018-07-13T02:14:44.797Z,98910.95
2018-07-13T02:17:14.027Z,98911.77
2018-07-13T02:19:43.332Z,98908.20
2018-07-13T02:22:12.789Z,98908.56
2018-07-13T02:24:42.052Z,98910.95
2018-07-13T02:27:11.368Z,98910.51
2018-07-13T02:29:40.801Z,98919.63
2018-07-13T02:32:10.154Z,98917.19
2018-07-13T02:34:39.457Z,98915.48
2018-07-13T02:37:08.928Z,98912.84
2018-07-13T02:39:38.204Z,98921.36
2018-07-13T02:42:07.451Z,98920.42
2018-07-13T02:44:36.741Z,98915.05
2018-07-13T02:47:06.016Z,98917.88
2018-07-13T02:49:35.288Z,98908.75
2018-07-13T02:52:04.564Z,98912.46
2018-07-13T02:54:33.775Z,98904.41
2018-07-13T02:57:03.006Z,98911.66
2018-07-13T02:59:32.220Z,98905.67
2018-07-13T03:02:01.520Z,98911.66
2018-07-13T03:04:30.836Z,98903.56
2018-07-13T03:07:00.166Z,98909.08
2018-07-13T03:09:29.428Z,98907.57
2018-07-13T03:11:58.632Z,98914.60
2018-07-13T03:14:27.945Z,98902.69
2018-07-13T03:16:57.240Z,98914.08
2018-07-13T03:19:26.649Z,98914.66
2018-07-13T03:21:55.923Z,98910.40
2018-07-13T03:24:25.151Z,98915.62
2018-07-13T03:26:54.456Z,98917.13
2018-07-13T03:29:23.864Z,98919.10
2018-07-13T03:31:53.241Z,98915.97
2018-07-13T03:34:22.518Z,98925.64
2018-07-13T03:36:51.944Z,98916.03
2018-07-13T03:39:21.161Z,98923.39
2018-07-13T03:41:50.731Z,98918.03
2018-07-13T03:44:19.968Z,98918.39
2018-07-13T03:46:49.172Z,98920.05
2018-07-13T03:49:18.412Z,98916.34
2018-07-13T03:51:47.628Z,98920.34
2018-07-13T03:54:16.920Z,98924.54
2018-07-13T03:56:46.312Z,98919.89
2018-07-13T03:59:15.489Z,98922.73
2018-07-13T04:01:44.732Z,98923.37
2018-07-13T04:04:14.036Z,98927.07
2018-07-13T04:06:43.443Z,98929.91
2018-07-13T04:09:12.676Z,98932.19
2018-07-13T04:11:42.002Z,98929.70
2018-07-13T04:14:11.323Z,98932.20
2018-07-13T04:16:40.659Z,98928.48
2018-07-13T04:19:09.990Z,98927.35
2018-07-13T04:21:39.507Z,98924.31
2018-07-13T04:24:08.754Z,98925.05
2018-07-13T04:26:38.156Z,98924.91
2018-07-13T04:29:07.613Z,98924.64
2018-07-13T04:31:36.808Z,98925.39
2018-07-13T04:34:06.033Z,98938.83
2018-07-13T04:36:35.327Z,98934.80
2018-07-13T04:39:05.114Z,98935.73
2018-07-13T04:41:34.250Z,98934.95
2018-07-13T04:44:03.507Z,98923.87
2018-07-13T04:46:32.832Z,98928.55
2018-07-13T04:49:02.227Z,98926.73
2018-07-13T04:51:31.625Z,98924.34
2018-07-13T04:54:01.011Z,98929.44
2018-07-13T04:56:30.373Z,98925.88
2018-07-13T04:58:59.880Z,98932.27
2018-07-13T05:01:29.307Z,98926.28
2018-07-13T05:03:58.845Z,98926.17
2018-07-13T05:06:29.033Z,98932.38
2018-07-13T05:08:58.408Z,98922.00
2018-07-13T05:11:27.715Z,98922.91
2018-07-13T05:13:56.920Z,98925.24
2018-07-13T05:16:25.912Z,98926.84
2018-07-13T05:18:55.160Z,98929.45
2018-07-13T05:21:24.704Z,98925.22
2018-07-13T05:23:54.068Z,98930.84
2018-07-13T05:26:23.502Z,98928.86
2018-07-13T05:28:53.120Z,98926.61
2018-07-13T05:31:22.680Z,98927.55
2018-07-13T05:33:51.923Z,98927.36
2018-07-13T05:36:21.267Z,98930.86
2018-07-13T05:38:50.615Z,98937.16
2018-07-13T05:41:21.000Z,98933.14
2018-07-13T05:43:50.424Z,98927.47
2018-07-13T05:46:19.740Z,98933.16
2018-07-13T05:48:49.164Z,98935.66
2018-07-13T05:51:18.504Z,98933.12
2018-07-13T05:53:47.840Z,98930.50
2018-07-13T05:56:17.081Z,98928.98
2018-07-13T05:58:46.432Z,98933.62
2018-07-13T06:01:15.707Z,98935.11
2018-07-13T06:03:45.006Z,98933.23
2018-07-13T06:06:14.136Z,98929.76
2018-07-13T06:08:43.564Z,98935.73
2018-07-13T06:11:12.971Z,98938.31
2018-07-13T06:13:42.346Z,98932.96
2018-07-13T06:16:11.682Z,98928.11
2018-07-13T06:18:41.103Z,98927.73
2018-07-13T06:21:10.584Z,98930.16
2018-07-13T06:23:39.893Z,98929.57
2018-07-13T06:26:09.147Z,98933.52
2018-07-13T06:28:39.181Z,98928.83
2018-07-13T06:31:08.870Z,98924.92
2018-07-13T06:33:38.260Z,98933.20
2018-07-13T06:36:07.619Z,98941.37
2018-07-13T06:38:37.221Z,98931.84
2018-07-13T06:41:06.673Z,98934.05
2018-07-13T06:43:36.017Z,98927.27
2018-07-13T06:46:05.268Z,98931.18
2018-07-13T06:48:34.617Z,98938.81
2018-07-13T06:51:04.212Z,98935.19
2018-07-13T06:53:33.424Z,98933.31
2018-07-13T06:56:02.599Z,98936.41
2018-07-13T06:58:42.428Z,98937.62
2018-07-13T07:01:11.908Z,98933.41
2018-07-13T07:04:48.772Z,98934.98
2018-07-13T07:07:25.917Z,98938.25
2018-07-13T07:09:59.418Z,98876.19
2018-07-13T07:13:08.313Z,98937.74
2018-07-13T07:15:37.924Z,98935.19
2018-07-13T07:18:07.734Z,98937.55
2018-07-13T07:20:37.101Z,98937.02
2018-07-13T07:23:06.412Z,98930.66
2018-07-13T07:25:35.704Z,98936.34
2018-07-13T07:28:05.052Z,98930.99
2018-07-13T07:30:34.544Z,98929.09
2018-07-13T07:33:03.720Z,98933.84
2018-07-13T07:35:33.016Z,98921.29
2018-07-13T07:38:02.355Z,98915.23
2018-07-13T07:40:31.668Z,98931.83
2018-07-13T07:43:01.252Z,98924.45
2018-07-13T07:45:30.816Z,98926.73
2018-07-13T07:48:00.152Z,98926.84
2018-07-13T07:50:29.466Z,98921.89
2018-07-13T07:52:58.695Z,98927.36
2018-07-13T07:55:27.942Z,98924.71
2018-07-13T07:57:57.145Z,98916.98
2018-07-13T08:00:26.512Z,98914.44
2018-07-13T08:02:56.001Z,98913.78
2018-07-13T08:05:25.229Z,98914.55
2018-07-13T08:07:54.384Z,98911.16
2018-07-13T08:10:23.563Z,98909.39
2018-07-13T08:12:52.784Z,98901.89
2018-07-13T08:15:21.950Z,98903.91
2018-07-13T08:17:51.036Z,98906.64
2018-07-13T08:20:25.195Z,98908.60
2018-07-13T08:23:02.884Z,98906.98
2018-07-13T08:25:42.760Z,98911.09
2018-07-13T08:28:12.061Z,98907.85
2018-07-13T08:30:47.335Z,98906.23
2018-07-13T08:33:16.381Z,98903.20
2018-07-13T08:35:45.412Z,98898.55
2018-07-13T08:38:14.432Z,98897.37
2018-07-13T08:40:43.868Z,98904.81
2018-07-13T08:43:13.016Z,98901.21
2018-07-13T08:45:42.272Z,98901.09
2018-07-13T08:48:11.418Z,98905.64
2018-07-13T08:50:40.668Z,98905.86
2018-07-13T08:53:09.889Z,98905.84
2018-07-13T08:55:39.296Z,98904.68
2018-07-13T08:58:08.748Z,98909.55
2018-07-13T09:00:38.101Z,98908.70
2018-07-13T09:03:07.496Z,98898.23
2018-07-13T09:05:36.742Z,98901.14
2018-07-13T09:08:05.979Z,98914.74
2018-07-13T09:10:35.248Z,98904.87
2018-07-13T09:13:04.435Z,98901.95
2018-07-13T09:15:33.507Z,98901.55
2018-07-13T09:18:02.664Z,98897.63
2018-07-13T09:20:31.748Z,98900.27
2018-07-13T09:23:00.768Z,98898.48
2018-07-13T09:25:29.788Z,98902.88
2018-07-13T09:27:58.791Z,98888.62
2018-07-13T09:30:27.864Z,98897.53
2018-07-13T09:32:56.883Z,98899.12
2018-07-13T09:35:26.210Z,98898.79
2018-07-13T09:37:55.457Z,98909.69
2018-07-13T09:40:24.488Z,98895.81
2018-07-13T09:42:53.640Z,98899.92
2018-07-13T09:45:22.631Z,98900.24
2018-07-13T09:47:51.996Z,98896.59
2018-07-13T09:50:21.515Z,98897.67
2018-07-13T09:52:50.684Z,98886.13
2018-07-13T09:55:19.856Z,98887.66
2018-07-13T09:57:48.874Z,98889.05
2018-07-13T10:00:17.867Z,98894.88
2018-07-13T10:02:46.851Z,98885.91
2018-07-13T10:05:15.988Z,98892.19
2018-07-13T10:07:45.068Z,98887.16
2018-07-13T10:10:14.112Z,98891.03
2018-07-13T10:12:43.144Z,98878.64
2018-07-13T10:15:12.151Z,98881.21
2018-07-13T10:17:41.179Z,98871.43
2018-07-13T10:20:10.199Z,98874.53
2018-07-13T10:22:39.351Z,98873.52
2018-07-13T10:25:08.700Z,98876.61
2018-07-13T10:27:39.231Z,98881.25
2018-07-13T10:30:11.280Z,98879.97
2018-07-13T10:32:40.862Z,98879.44
2018-07-13T10:35:10.484Z,98883.78
2018-07-13T10:37:41.232Z,98878.67
2018-07-13T10:40:10.264Z,98875.16
2018-07-13T10:42:39.276Z,98864.64
2018-07-13T10:45:08.305Z,98864.28
2018-07-13T10:47:37.420Z,98861.54
2018-07-13T10:50:06.400Z,98868.02
2018-07-13T10:52:35.413Z,98864.11
2018-07-13T10:55:04.416Z,98858.73
2018-07-13T10:57:33.404Z,98847.98
2018-07-13T11:00:02.400Z,98854.17
2018-07-13T11:02:31.361Z,98844.78
2018-07-13T11:05:00.384Z,98857.87
2018-07-13T11:07:29.352Z,98855.67
2018-07-13T11:09:58.384Z,98848.98
2018-07-13T11:12:27.398Z,98855.19
2018-07-13T11:14:56.467Z,98845.61
2018-07-13T11:17:25.464Z,98841.02
2018-07-13T11:19:54.448Z,98840.48
2018-07-13T11:22:23.478Z,98831.91
2018-07-13T11:24:52.438Z,98835.11
2018-07-13T11:27:21.392Z,98833.67
2018-07-13T11:29:50.406Z,98832.76
2018-07-13T11:32:19.380Z,98839.11
2018-07-13T11:34:48.422Z,98840.02
2018-07-13T11:37:17.463Z,98839.31
2018-07-13T11:39:46.504Z,98825.69
2018-07-13T11:42:15.567Z,98831.28
2018-07-13T11:44:44.539Z,98826.38
2018-07-13T11:47:13.618Z,98831.31
2018-07-13T11:49:42.579Z,98813.59
2018-07-13T11:52:11.631Z,98819.48
2018-07-13T11:54:40.697Z,98810.59
2018-07-13T11:57:09.764Z,98807.39
2018-07-13T11:59:38.735Z,98801.80
2018-07-13T12:02:07.796Z,98798.86
2018-07-13T12:04:36.828Z,98790.81
2018-07-13T12:07:06.231Z,98794.58
2018-07-13T12:09:35.290Z,98786.19
2018-07-13T12:12:04.342Z,98809.23
2018-07-13T12:17:07.493Z,98797.31
2018-07-13T12:19:36.464Z,98789.39
2018-07-13T12:22:05.488Z,98792.41
2018-07-13T12:24:34.525Z,98789.73
2018-07-13T12:27:03.691Z,98782.20
2018-07-13T12:29:32.636Z,98781.69
2018-07-13T12:32:01.708Z,98777.06
2018-07-13T12:34:30.764Z,98768.47
2018-07-13T12:36:59.817Z,98773.78
2018-07-13T12:39:28.888Z,98767.11
2018-07-13T12:41:57.885Z,98765.77
2018-07-13T12:44:26.926Z,98769.73
2018-07-13T12:46:55.900Z,98759.65
2018-07-13T12:49:25.014Z,98760.30
2018-07-13T12:51:54.235Z,98764.39
2018-07-13T12:54:23.337Z,98760.09
2018-07-13T12:56:52.309Z,98763.55
2018-07-13T12:59:21.323Z,98765.14
2018-07-13T13:01:50.444Z,98766.61
2018-07-13T13:04:19.409Z,98767.19
2018-07-13T13:06:48.392Z,98767.17
2018-07-13T13:09:17.520Z,98768.50
2018-07-13T13:11:46.565Z,98766.33
2018-07-13T13:14:15.591Z,98776.55
2018-07-13T13:16:44.567Z,98770.94
2018-07-13T13:19:13.665Z,98765.27
2018-07-13T13:21:43.059Z,98763.90
2018-07-13T13:24:12.137Z,98767.84
2018-07-13T13:26:41.149Z,98763.36
2018-07-13T13:29:10.194Z,98770.69
2018-07-13T13:31:39.255Z,98762.12
2018-07-13T13:34:08.690Z,98754.17
2018-07-13T13:36:37.730Z,98748.08
2018-07-13T13:39:06.825Z,98759.92
2018-07-13T13:41:35.896Z,98752.66
2018-07-13T13:44:05.028Z,98744.63
2018-07-13T13:46:34.001Z,98736.55
2018-07-13T13:49:02.989Z,98739.23
2018-07-13T13:51:32.043Z,98730.38
2018-07-13T13:54:01.068Z,98721.28
2018-07-13T13:56:30.093Z,98720.75
2018-07-13T13:58:59.231Z,98732.04
2018-07-13T14:01:28.205Z,98741.42
2018-07-13T14:03:57.236Z,98743.03
2018-07-13T14:06:26.297Z,98740.08
2018-07-13T14:08:55.345Z,98758.59
2018-07-13T14:11:24.395Z,98750.28
2018-07-13T14:13:53.457Z,98754.56
2018-07-13T14:16:22.620Z,98755.34
2018-07-13T14:18:51.650Z,98761.81
2018-07-13T14:21:20.770Z,98757.52
2018-07-13T14:23:49.755Z,98754.25
2018-07-13T14:26:18.737Z,98754.29
2018-07-13T14:28:47.732Z,98754.27
2018-07-13T14:31:16.788Z,98756.14
2018-07-13T14:33:46.490Z,98752.39
2018-07-13T14:36:15.573Z,98752.13
2018-07-13T14:38:44.597Z,98754.25
2018-07-13T14:41:13.666Z,98746.78
2018-07-13T14:43:42.732Z,98760.97
2018-07-13T14:46:11.903Z,98753.20
2018-07-13T14:48:40.888Z,98763.65
2018-07-13T14:51:10.017Z,98765.58
2018-07-13T14:53:39.124Z,98770.67
2018-07-13T14:56:08.249Z,98761.81
2018-07-13T14:58:37.431Z,98763.96
2018-07-13T15:01:06.456Z,98769.06
2018-07-13T15:03:35.472Z,98769.33
2018-07-13T15:06:04.540Z,98763.97
2018-07-13T15:08:33.456Z,98771.97
2018-07-13T15:11:02.541Z,98765.28
2018-07-13T15:13:31.544Z,98776.55
2018-07-13T15:16:00.676Z,98774.92
2018-07-13T15:18:29.684Z,98774.91
2018-07-13T15:20:58.799Z,98772.23
2018-07-13T15:23:27.849Z,98776.51
2018-07-13T15:25:56.891Z,98780.22
2018-07-13T15:28:25.871Z,98774.23
2018-07-13T15:31:01.146Z,98770.98
2018-07-13T15:33:30.261Z,98771.39
2018-07-13T15:35:59.236Z,98774.27
2018-07-13T15:38:28.273Z,98768.48
2018-07-13T15:40:57.270Z,98763.67
2018-07-13T15:43:26.287Z,98760.15
2018-07-13T15:45:55.235Z,98761.95
2018-07-13T15:48:24.253Z,98753.36
2018-07-13T15:50:53.373Z,98754.96
2018-07-13T15:53:22.538Z,98757.38
2018-07-13T15:55:58.280Z,98750.68
2018-07-13T15:58:28.529Z,98751.00
2018-07-13T16:00:57.555Z,98753.16
2018-07-13T16:03:26.688Z,98741.83
2018-07-13T16:05:55.737Z,98747.45
2018-07-13T16:08:24.725Z,98748.42
2018-07-13T16:10:53.685Z,98744.48
2018-07-13T16:13:22.812Z,98749.28
2018-07-13T16:15:51.850Z,98750.09
2018-07-13T16:18:20.827Z,98748.76
2018-07-13T16:20:49.799Z,98755.12
2018-07-13T16:23:18.836Z,98747.05
2018-07-13T16:25:47.807Z,98746.67
2018-07-13T16:28:21.239Z,98749.53
2018-07-13T16:30:51.252Z,98750.20
2018-07-13T16:33:20.357Z,98750.87
2018-07-13T16:35:49.409Z,98750.13
2018-07-13T16:38:18.575Z,98751.66
2018-07-13T16:40:47.812Z,98751.80
2018-07-13T16:43:16.858Z,98752.23
2018-07-13T16:45:45.966Z,98756.92
2018-07-13T16:48:15.130Z,98754.88
2018-07-13T16:50:44.382Z,98742.40
2018-07-13T16:53:13.448Z,98756.84
2018-07-13T16:55:42.467Z,98759.77
2018-07-13T16:58:11.489Z,98755.19
2018-07-13T17:00:40.480Z,98767.30
2018-07-13T17:03:09.559Z,98763.45
2018-07-13T17:05:38.641Z,98767.63
2018-07-13T17:08:07.599Z,98762.21
2018-07-13T17:10:36.603Z,98766.94
2018-07-13T17:13:05.603Z,98762.28
2018-07-13T17:15:34.573Z,98762.83
2018-07-13T17:18:03.684Z,98768.97
2018-07-13T17:20:32.811Z,98763.77
2018-07-13T17:23:01.816Z,98764.23
2018-07-13T17:25:30.837Z,98768.38
2018-07-13T17:28:00.119Z,98765.84
2018-07-13T17:30:29.369Z,98764.08
2018-07-13T17:32:58.413Z,98760.02
2018-07-13T17:35:27.420Z,98769.67
2018-07-13T17:37:56.404Z,98775.94
2018-07-13T17:40:25.444Z,98777.31
2018-07-13T17:42:54.510Z,98774.60
2018-07-13T17:45:23.570Z,98776.92
2018-07-13T17:47:52.551Z,98778.14
2018-07-13T17:50:21.673Z,98779.63
2018-07-13T17:52:50.664Z,98786.22
2018-07-13T17:55:19.821Z,98781.60
2018-07-13T17:57:48.946Z,98772.13
2018-07-13T18:00:17.949Z,98778.63
2018-07-13T18:02:46.928Z,98782.75
2018-07-13T18:05:17.025Z,98793.79
2018-07-13T18:07:46.065Z,98788.38
2018-07-13T18:10:15.122Z,98796.72
2018-07-13T18:12:44.271Z,98795.86
2018-07-13T18:15:13.296Z,98802.39
2018-07-13T18:17:42.271Z,98814.31
2018-07-13T18:20:11.275Z,98819.23
2018-07-13T18:22:40.295Z,98818.06
2018-07-13T18:25:09.380Z,98821.77
2018-07-13T18:27:38.369Z,98816.68
2018-07-13T18:30:07.402Z,98829.91
2018-07-13T18:32:38.880Z,98829.34
2018-07-13T18:35:07.936Z,98830.59
2018-07-13T18:37:36.899Z,98830.95
2018-07-13T18:40:05.895Z,98832.52
2018-07-13T18:42:34.856Z,98833.72
2018-07-13T18:45:04.068Z,98842.89
2018-07-13T18:47:33.216Z,98841.28
2018-07-13T18:50:02.194Z,98846.19
2018-07-13T18:52:31.192Z,98850.41
2018-07-13T18:55:00.168Z,98846.11
2018-07-13T18:57:29.143Z,98844.00
2018-07-13T18:59:58.171Z,98847.06
2018-07-13T19:02:27.236Z,98851.00
2018-07-13T19:04:56.261Z,98852.16
2018-07-13T19:07:25.482Z,98856.73
2018-07-13T19:09:54.439Z,98864.80
2018-07-13T19:12:23.449Z,98867.40
2018-07-13T19:14:52.482Z,98856.63
2018-07-13T19:17:21.517Z,98856.70
2018-07-13T19:19:50.571Z,98865.72
2018-07-13T19:22:19.548Z,98866.31
2018-07-13T19:24:48.577Z,98862.44
2018-07-13T19:27:17.552Z,98861.74
2018-07-13T19:29:46.589Z,98856.82
2018-07-13T19:32:15.631Z,98849.75
2018-07-13T19:34:44.664Z,98854.30
2018-07-13T19:37:13.796Z,98857.05
2018-07-13T19:39:42.755Z,98861.52
2018-07-13T19:42:11.759Z,98860.64
2018-07-13T19:44:41.369Z,98855.17
2018-07-13T19:47:10.337Z,98858.71
2018-07-13T19:49:39.468Z,98857.67
2018-07-13T19:52:08.492Z,98866.08
2018-07-13T19:54:37.555Z,98866.30
2018-07-13T19:57:06.684Z,98865.64
2018-07-13T19:59:35.635Z,98873.76
2018-07-13T20:02:04.769Z,98869.39
2018-07-13T20:04:33.809Z,98868.13
2018-07-13T20:07:02.824Z,98878.30
2018-07-13T20:09:31.791Z,98878.08
2018-07-13T20:12:00.832Z,98884.50
2018-07-13T20:14:29.803Z,98882.78
2018-07-13T20:16:58.964Z,98898.70
2018-07-13T20:19:27.908Z,98896.16
2018-07-13T20:21:56.999Z,98899.41
2018-07-13T20:24:26.133Z,98895.05
2018-07-13T20:26:55.259Z,98901.11
2018-07-13T20:29:24.389Z,98902.16
2018-07-13T20:31:53.369Z,98901.41
2018-07-13T20:34:22.353Z,98899.98
2018-07-13T20:36:51.464Z,98892.00
2018-07-13T20:39:20.505Z,98895.26
2018-07-13T20:41:49.492Z,98900.59
2018-07-13T20:44:18.447Z,98893.97
2018-07-13T20:46:47.551Z,98892.47
2018-07-13T20:49:16.531Z,98896.02
2018-07-13T20:51:45.636Z,98890.67
2018-07-13T20:54:14.722Z,98888.45
2018-07-13T20:56:43.693Z,98887.95
2018-07-13T20:59:12.685Z,98889.85
2018-07-13T21:01:41.934Z,98886.70
2018-07-13T21:04:11.016Z,98881.61
2018-07-13T21:06:39.987Z,98886.41
2018-07-13T21:09:09.207Z,98878.23
2018-07-13T21:11:38.237Z,98877.56
2018-07-13T21:14:07.287Z,98884.62
2018-07-13T21:16:36.272Z,98881.41
2018-07-13T21:19:05.308Z,98883.63
2018-07-13T21:21:34.354Z,98880.90
2018-07-13T21:24:03.358Z,98885.09
2018-07-13T21:26:32.401Z,98885.41
2018-07-13T21:29:01.449Z,98884.62
2018-07-13T21:31:30.419Z,98886.95
2018-07-13T21:33:59.470Z,98884.73
2018-07-13T21:36:28.493Z,98893.03
2018-07-13T21:38:57.523Z,98890.27
2018-07-13T21:41:26.476Z,98881.39
2018-07-13T21:43:55.436Z,98879.59
2018-07-13T21:46:24.461Z,98875.63
2018-07-13T21:48:53.427Z,98884.64
2018-07-13T21:51:22.560Z,98880.41
2018-07-13T21:53:51.555Z,98881.91
2018-07-13T21:56:20.608Z,98886.22
2018-07-13T21:58:49.613Z,98886.94
2018-07-13T22:01:18.671Z,98885.83
2018-07-13T22:03:47.656Z,98884.84
2018-07-13T22:06:16.688Z,98886.39
2018-07-13T22:08:45.688Z,98881.12
2018-07-13T22:11:14.837Z,98884.48
2018-07-13T22:13:43.875Z,98881.05
2018-07-13T22:16:12.919Z,98881.16
2018-07-13T22:18:41.852Z,98880.45
2018-07-13T22:21:10.869Z,98883.60
2018-07-13T22:23:39.892Z,98879.55
2018-07-13T22:26:09.050Z,98878.94
2018-07-13T22:28:38.088Z,98875.89
2018-07-13T22:31:07.202Z,98867.67
2018-07-13T22:33:36.152Z,98871.73
2018-07-13T22:36:05.144Z,98866.44
2018-07-13T22:38:34.165Z,98869.50
2018-07-13T22:41:03.128Z,98869.91
2018-07-13T22:43:32.112Z,98868.59
2018-07-13T22:46:01.208Z,98868.39
2018-07-13T22:48:30.184Z,98864.95
2018-07-13T22:50:59.203Z,98864.56
2018-07-13T22:53:28.194Z,98858.81
2018-07-13T22:55:59.660Z,98857.87
2018-07-13T22:58:28.640Z,98856.35
2018-07-13T23:00:57.677Z,98854.02
2018-07-13T23:03:29.908Z,98852.19
2018-07-13T23:06:00.056Z,98849.66
2018-07-13T23:08:29.055Z,98855.66
2018-07-13T23:10:58.657Z,98862.77
2018-07-13T23:13:27.728Z,98862.67
2018-07-13T23:15:56.700Z,98856.25
2018-07-13T23:18:25.672Z,98863.75
2018-07-13T23:20:54.668Z,98862.76
2018-07-13T23:23:23.640Z,98860.21
2018-07-13T23:25:52.621Z,98858.37
2018-07-13T23:28:21.591Z,98856.73
2018-07-13T23:30:50.692Z,98857.23
2018-07-13T23:33:19.756Z,98858.84
2018-07-13T23:35:48.719Z,98854.78
2018-07-13T23:38:17.693Z,98853.23
2018-07-13T23:40:46.700Z,98853.21
2018-07-13T23:43:15.681Z,98848.03
2018-07-13T23:45:44.643Z,98846.91
2018-07-13T23:48:13.735Z,98849.85
2018-07-13T23:50:42.703Z,98854.44
2018-07-13T23:53:11.725Z,98855.86
2018-07-13T23:55:40.737Z,98857.97
2018-07-13T23:58:09.760Z,98857.67
